sensor_id;sensor_type;location;lat;lon;timestamp;P1;durP1;ratioP1;P2;durP2;ratioP2
76113;SDS011;64845;53.086;5.834;2022-11-21T00:00:01;24.00;;;14.20;;
76113;SDS011;64845;53.086;5.834;2022-11-21T00:02:28;22.40;;;13.57;;
76113;SDS011;64845;53.086;5.834;2022-11-21T00:04:54;22.42;;;14.40;;
76113;SDS011;64845;53.086;5.834;2022-11-21T00:07:19;23.63;;;14.38;;
76113;SDS011;64845;53.086;5.834;2022-11-21T00:09:45;22.85;;;13.48;;
76113;SDS011;64845;53.086;5.834;2022-11-21T00:12:10;26.42;;;14.45;;
76113;SDS011;64845;53.086;5.834;2022-11-21T00:14:35;27.50;;;14.15;;
76113;SDS011;64845;53.086;5.834;2022-11-21T00:17:01;25.45;;;15.02;;
76113;SDS011;64845;53.086;5.834;2022-11-21T00:19:26;27.25;;;15.10;;
76113;SDS011;64845;53.086;5.834;2022-11-21T00:21:51;24.90;;;15.20;;
76113;SDS011;64845;53.086;5.834;2022-11-21T00:24:17;23.80;;;14.13;;
76113;SDS011;64845;53.086;5.834;2022-11-21T00:26:42;20.08;;;13.38;;
76113;SDS011;64845;53.086;5.834;2022-11-21T00:29:07;24.98;;;14.75;;
76113;SDS011;64845;53.086;5.834;2022-11-21T00:31:33;24.55;;;15.27;;
76113;SDS011;64845;53.086;5.834;2022-11-21T00:33:58;25.58;;;14.38;;
76113;SDS011;64845;53.086;5.834;2022-11-21T00:36:24;25.20;;;15.23;;
76113;SDS011;64845;53.086;5.834;2022-11-21T00:38:49;21.67;;;13.77;;
76113;SDS011;64845;53.086;5.834;2022-11-21T00:41:15;23.95;;;15.20;;
76113;SDS011;64845;53.086;5.834;2022-11-21T00:43:40;26.77;;;14.45;;
76113;SDS011;64845;53.086;5.834;2022-11-21T00:46:05;24.90;;;14.98;;
76113;SDS011;64845;53.086;5.834;2022-11-21T00:48:31;24.30;;;14.82;;
76113;SDS011;64845;53.086;5.834;2022-11-21T00:50:57;27.60;;;15.23;;
76113;SDS011;64845;53.086;5.834;2022-11-21T00:53:24;25.50;;;14.77;;
76113;SDS011;64845;53.086;5.834;2022-11-21T00:55:49;25.90;;;14.85;;
76113;SDS011;64845;53.086;5.834;2022-11-21T00:58:15;23.63;;;14.43;;
76113;SDS011;64845;53.086;5.834;2022-11-21T01:00:40;26.13;;;14.63;;
76113;SDS011;64845;53.086;5.834;2022-11-21T01:03:05;29.88;;;15.85;;
76113;SDS011;64845;53.086;5.834;2022-11-21T01:05:31;22.85;;;14.68;;
76113;SDS011;64845;53.086;5.834;2022-11-21T01:07:57;26.65;;;15.20;;
76113;SDS011;64845;53.086;5.834;2022-11-21T01:10:22;26.25;;;15.40;;
76113;SDS011;64845;53.086;5.834;2022-11-21T01:12:48;25.00;;;14.70;;
76113;SDS011;64845;53.086;5.834;2022-11-21T01:15:13;26.45;;;15.45;;
76113;SDS011;64845;53.086;5.834;2022-11-21T01:17:39;30.90;;;16.45;;
76113;SDS011;64845;53.086;5.834;2022-11-21T01:20:05;25.55;;;14.93;;
76113;SDS011;64845;53.086;5.834;2022-11-21T01:22:31;22.52;;;14.75;;
76113;SDS011;64845;53.086;5.834;2022-11-21T01:24:57;26.88;;;15.80;;
76113;SDS011;64845;53.086;5.834;2022-11-21T01:27:22;34.25;;;15.27;;
76113;SDS011;64845;53.086;5.834;2022-11-21T01:29:47;23.05;;;14.52;;
76113;SDS011;64845;53.086;5.834;2022-11-21T01:32:13;24.77;;;14.98;;
76113;SDS011;64845;53.086;5.834;2022-11-21T01:34:38;25.15;;;15.30;;
76113;SDS011;64845;53.086;5.834;2022-11-21T01:37:05;25.95;;;15.27;;
76113;SDS011;64845;53.086;5.834;2022-11-21T01:39:30;27.40;;;14.40;;
76113;SDS011;64845;53.086;5.834;2022-11-21T01:41:55;29.25;;;15.27;;
76113;SDS011;64845;53.086;5.834;2022-11-21T01:44:25;26.80;;;15.25;;
76113;SDS011;64845;53.086;5.834;2022-11-21T01:47:09;24.83;;;14.63;;
76113;SDS011;64845;53.086;5.834;2022-11-21T01:49:35;25.02;;;14.82;;
76113;SDS011;64845;53.086;5.834;2022-11-21T01:52:11;27.33;;;16.00;;
76113;SDS011;64845;53.086;5.834;2022-11-21T01:57:33;22.75;;;14.55;;
76113;SDS011;64845;53.086;5.834;2022-11-21T02:00:09;27.02;;;14.73;;
76113;SDS011;64845;53.086;5.834;2022-11-21T02:02:45;23.65;;;14.60;;
76113;SDS011;64845;53.086;5.834;2022-11-21T02:05:19;25.42;;;14.75;;
76113;SDS011;64845;53.086;5.834;2022-11-21T02:08:05;23.95;;;13.88;;
76113;SDS011;64845;53.086;5.834;2022-11-21T02:10:38;23.38;;;14.38;;
76113;SDS011;64845;53.086;5.834;2022-11-21T02:13:10;26.48;;;15.07;;
76113;SDS011;64845;53.086;5.834;2022-11-21T02:15:36;28.05;;;16.33;;
76113;SDS011;64845;53.086;5.834;2022-11-21T02:18:01;25.10;;;14.98;;
76113;SDS011;64845;53.086;5.834;2022-11-21T02:20:27;25.58;;;14.43;;
76113;SDS011;64845;53.086;5.834;2022-11-21T02:26:00;25.48;;;15.38;;
76113;SDS011;64845;53.086;5.834;2022-11-21T02:28:25;28.05;;;14.95;;
76113;SDS011;64845;53.086;5.834;2022-11-21T02:30:51;27.02;;;15.48;;
76113;SDS011;64845;53.086;5.834;2022-11-21T02:33:17;24.55;;;14.77;;
76113;SDS011;64845;53.086;5.834;2022-11-21T02:35:42;22.95;;;14.07;;
76113;SDS011;64845;53.086;5.834;2022-11-21T02:38:21;24.38;;;13.85;;
76113;SDS011;64845;53.086;5.834;2022-11-21T02:40:54;26.42;;;15.65;;
76113;SDS011;64845;53.086;5.834;2022-11-21T02:43:37;26.30;;;15.55;;
76113;SDS011;64845;53.086;5.834;2022-11-21T02:46:09;22.57;;;14.07;;
76113;SDS011;64845;53.086;5.834;2022-11-21T02:48:35;23.60;;;14.23;;
76113;SDS011;64845;53.086;5.834;2022-11-21T02:51:01;25.05;;;14.60;;
76113;SDS011;64845;53.086;5.834;2022-11-21T02:53:26;25.88;;;15.50;;
76113;SDS011;64845;53.086;5.834;2022-11-21T02:55:52;25.85;;;15.85;;
76113;SDS011;64845;53.086;5.834;2022-11-21T02:58:17;22.85;;;13.88;;
76113;SDS011;64845;53.086;5.834;2022-11-21T03:00:43;25.13;;;14.90;;
76113;SDS011;64845;53.086;5.834;2022-11-21T03:03:09;25.30;;;14.25;;
76113;SDS011;64845;53.086;5.834;2022-11-21T03:05:34;25.75;;;14.23;;
76113;SDS011;64845;53.086;5.834;2022-11-21T03:08:01;27.63;;;14.77;;
76113;SDS011;64845;53.086;5.834;2022-11-21T03:10:27;22.75;;;13.80;;
76113;SDS011;64845;53.086;5.834;2022-11-21T03:12:52;21.80;;;13.05;;
76113;SDS011;64845;53.086;5.834;2022-11-21T03:15:24;24.23;;;14.35;;
76113;SDS011;64845;53.086;5.834;2022-11-21T03:17:50;25.50;;;15.00;;
76113;SDS011;64845;53.086;5.834;2022-11-21T03:20:16;24.17;;;14.70;;
76113;SDS011;64845;53.086;5.834;2022-11-21T03:22:41;28.67;;;14.50;;
76113;SDS011;64845;53.086;5.834;2022-11-21T03:25:07;25.88;;;15.43;;
76113;SDS011;64845;53.086;5.834;2022-11-21T03:27:32;24.95;;;15.48;;
76113;SDS011;64845;53.086;5.834;2022-11-21T03:29:58;27.20;;;16.05;;
76113;SDS011;64845;53.086;5.834;2022-11-21T03:32:23;28.77;;;17.35;;
76113;SDS011;64845;53.086;5.834;2022-11-21T03:34:48;28.73;;;16.52;;
76113;SDS011;64845;53.086;5.834;2022-11-21T03:37:14;26.60;;;16.48;;
76113;SDS011;64845;53.086;5.834;2022-11-21T03:39:40;32.70;;;16.95;;
76113;SDS011;64845;53.086;5.834;2022-11-21T03:42:06;24.70;;;15.98;;
76113;SDS011;64845;53.086;5.834;2022-11-21T03:44:31;27.63;;;16.45;;
76113;SDS011;64845;53.086;5.834;2022-11-21T03:46:57;27.13;;;15.50;;
76113;SDS011;64845;53.086;5.834;2022-11-21T03:49:22;24.98;;;15.13;;
76113;SDS011;64845;53.086;5.834;2022-11-21T03:51:48;25.27;;;15.50;;
76113;SDS011;64845;53.086;5.834;2022-11-21T03:54:13;25.80;;;14.57;;
76113;SDS011;64845;53.086;5.834;2022-11-21T03:56:38;26.52;;;15.13;;
76113;SDS011;64845;53.086;5.834;2022-11-21T03:59:04;26.17;;;15.55;;
76113;SDS011;64845;53.086;5.834;2022-11-21T04:01:29;23.25;;;14.20;;
76113;SDS011;64845;53.086;5.834;2022-11-21T04:03:55;23.45;;;14.73;;
76113;SDS011;64845;53.086;5.834;2022-11-21T04:06:21;25.90;;;15.20;;
76113;SDS011;64845;53.086;5.834;2022-11-21T04:08:47;26.50;;;15.63;;
76113;SDS011;64845;53.086;5.834;2022-11-21T04:11:13;26.13;;;15.55;;
76113;SDS011;64845;53.086;5.834;2022-11-21T04:13:39;29.35;;;15.38;;
76113;SDS011;64845;53.086;5.834;2022-11-21T04:16:04;26.95;;;15.05;;
76113;SDS011;64845;53.086;5.834;2022-11-21T04:18:30;25.80;;;15.10;;
76113;SDS011;64845;53.086;5.834;2022-11-21T04:20:59;25.35;;;15.38;;
76113;SDS011;64845;53.086;5.834;2022-11-21T04:23:29;24.75;;;14.82;;
76113;SDS011;64845;53.086;5.834;2022-11-21T04:25:54;25.67;;;14.82;;
76113;SDS011;64845;53.086;5.834;2022-11-21T04:28:20;27.10;;;15.25;;
76113;SDS011;64845;53.086;5.834;2022-11-21T04:30:46;23.20;;;14.38;;
76113;SDS011;64845;53.086;5.834;2022-11-21T04:33:12;25.27;;;14.68;;
76113;SDS011;64845;53.086;5.834;2022-11-21T04:35:39;26.35;;;14.75;;
76113;SDS011;64845;53.086;5.834;2022-11-21T04:38:04;25.52;;;13.82;;
76113;SDS011;64845;53.086;5.834;2022-11-21T04:40:30;24.27;;;14.65;;
76113;SDS011;64845;53.086;5.834;2022-11-21T04:42:56;25.27;;;14.80;;
76113;SDS011;64845;53.086;5.834;2022-11-21T04:45:21;22.83;;;13.50;;
76113;SDS011;64845;53.086;5.834;2022-11-21T04:47:46;25.17;;;14.43;;
76113;SDS011;64845;53.086;5.834;2022-11-21T04:50:15;29.67;;;15.32;;
76113;SDS011;64845;53.086;5.834;2022-11-21T04:52:41;24.77;;;14.55;;
76113;SDS011;64845;53.086;5.834;2022-11-21T04:55:07;25.38;;;15.30;;
76113;SDS011;64845;53.086;5.834;2022-11-21T04:57:33;25.30;;;14.93;;
76113;SDS011;64845;53.086;5.834;2022-11-21T05:00:01;26.02;;;14.63;;
76113;SDS011;64845;53.086;5.834;2022-11-21T05:02:27;28.38;;;15.85;;
76113;SDS011;64845;53.086;5.834;2022-11-21T05:04:53;30.13;;;16.95;;
76113;SDS011;64845;53.086;5.834;2022-11-21T05:07:18;26.80;;;15.18;;
76113;SDS011;64845;53.086;5.834;2022-11-21T05:09:43;29.70;;;16.85;;
76113;SDS011;64845;53.086;5.834;2022-11-21T05:12:09;27.67;;;16.20;;
76113;SDS011;64845;53.086;5.834;2022-11-21T05:14:53;26.63;;;16.05;;
76113;SDS011;64845;53.086;5.834;2022-11-21T05:17:19;26.08;;;16.05;;
76113;SDS011;64845;53.086;5.834;2022-11-21T05:19:44;29.17;;;16.05;;
76113;SDS011;64845;53.086;5.834;2022-11-21T05:22:09;30.25;;;16.65;;
76113;SDS011;64845;53.086;5.834;2022-11-21T05:24:35;26.92;;;16.67;;
76113;SDS011;64845;53.086;5.834;2022-11-21T05:27:00;30.33;;;16.45;;
76113;SDS011;64845;53.086;5.834;2022-11-21T05:29:25;30.20;;;17.38;;
76113;SDS011;64845;53.086;5.834;2022-11-21T05:31:51;32.30;;;17.50;;
76113;SDS011;64845;53.086;5.834;2022-11-21T05:34:16;28.73;;;15.70;;
76113;SDS011;64845;53.086;5.834;2022-11-21T05:36:41;31.20;;;16.73;;
76113;SDS011;64845;53.086;5.834;2022-11-21T05:39:07;31.88;;;16.92;;
76113;SDS011;64845;53.086;5.834;2022-11-21T05:41:32;31.85;;;18.13;;
76113;SDS011;64845;53.086;5.834;2022-11-21T05:43:57;30.27;;;17.15;;
76113;SDS011;64845;53.086;5.834;2022-11-21T05:46:23;30.13;;;16.85;;
76113;SDS011;64845;53.086;5.834;2022-11-21T05:48:51;28.38;;;17.00;;
76113;SDS011;64845;53.086;5.834;2022-11-21T05:51:18;28.15;;;17.60;;
76113;SDS011;64845;53.086;5.834;2022-11-21T05:53:44;30.83;;;17.50;;
76113;SDS011;64845;53.086;5.834;2022-11-21T05:56:11;30.98;;;17.73;;
76113;SDS011;64845;53.086;5.834;2022-11-21T05:58:38;31.48;;;16.58;;
76113;SDS011;64845;53.086;5.834;2022-11-21T06:01:04;27.48;;;15.95;;
76113;SDS011;64845;53.086;5.834;2022-11-21T06:03:32;29.80;;;16.85;;
76113;SDS011;64845;53.086;5.834;2022-11-21T06:08:31;36.25;;;17.35;;
76113;SDS011;64845;53.086;5.834;2022-11-21T06:11:00;30.27;;;17.63;;
76113;SDS011;64845;53.086;5.834;2022-11-21T06:13:26;34.88;;;18.20;;
76113;SDS011;64845;53.086;5.834;2022-11-21T06:16:02;32.88;;;18.10;;
76113;SDS011;64845;53.086;5.834;2022-11-21T06:18:31;29.90;;;16.73;;
76113;SDS011;64845;53.086;5.834;2022-11-21T06:21:01;32.97;;;17.45;;
76113;SDS011;64845;53.086;5.834;2022-11-21T06:23:31;31.05;;;16.92;;
76113;SDS011;64845;53.086;5.834;2022-11-21T06:25:59;31.92;;;17.25;;
76113;SDS011;64845;53.086;5.834;2022-11-21T06:28:26;35.63;;;19.92;;
76113;SDS011;64845;53.086;5.834;2022-11-21T06:30:54;34.50;;;17.67;;
76113;SDS011;64845;53.086;5.834;2022-11-21T06:33:19;29.70;;;17.10;;
76113;SDS011;64845;53.086;5.834;2022-11-21T06:35:45;32.53;;;16.95;;
76113;SDS011;64845;53.086;5.834;2022-11-21T06:38:10;31.85;;;17.05;;
76113;SDS011;64845;53.086;5.834;2022-11-21T06:40:37;36.20;;;18.55;;
76113;SDS011;64845;53.086;5.834;2022-11-21T06:43:03;35.50;;;19.25;;
76113;SDS011;64845;53.086;5.834;2022-11-21T06:45:29;32.22;;;16.70;;
76113;SDS011;64845;53.086;5.834;2022-11-21T06:47:54;32.85;;;18.10;;
76113;SDS011;64845;53.086;5.834;2022-11-21T06:50:20;38.38;;;19.70;;
76113;SDS011;64845;53.086;5.834;2022-11-21T06:52:46;37.28;;;18.08;;
76113;SDS011;64845;53.086;5.834;2022-11-21T06:55:12;38.30;;;18.88;;
76113;SDS011;64845;53.086;5.834;2022-11-21T06:57:38;40.20;;;19.48;;
76113;SDS011;64845;53.086;5.834;2022-11-21T07:00:03;34.97;;;18.23;;
76113;SDS011;64845;53.086;5.834;2022-11-21T07:02:29;37.92;;;19.35;;
76113;SDS011;64845;53.086;5.834;2022-11-21T07:04:55;38.15;;;19.27;;
76113;SDS011;64845;53.086;5.834;2022-11-21T07:07:20;36.55;;;19.75;;
76113;SDS011;64845;53.086;5.834;2022-11-21T07:09:46;40.10;;;19.17;;
76113;SDS011;64845;53.086;5.834;2022-11-21T07:12:12;37.22;;;19.73;;
76113;SDS011;64845;53.086;5.834;2022-11-21T07:14:56;33.63;;;18.83;;
76113;SDS011;64845;53.086;5.834;2022-11-21T07:17:21;39.55;;;20.45;;
76113;SDS011;64845;53.086;5.834;2022-11-21T07:19:46;38.38;;;19.95;;
76113;SDS011;64845;53.086;5.834;2022-11-21T07:22:12;43.20;;;19.33;;
76113;SDS011;64845;53.086;5.834;2022-11-21T07:24:37;39.90;;;20.48;;
76113;SDS011;64845;53.086;5.834;2022-11-21T07:27:03;35.63;;;19.20;;
76113;SDS011;64845;53.086;5.834;2022-11-21T07:29:28;39.08;;;19.95;;
76113;SDS011;64845;53.086;5.834;2022-11-21T07:31:53;44.03;;;21.42;;
76113;SDS011;64845;53.086;5.834;2022-11-21T07:34:19;50.00;;;21.80;;
76113;SDS011;64845;53.086;5.834;2022-11-21T07:36:44;54.22;;;21.17;;
76113;SDS011;64845;53.086;5.834;2022-11-21T07:39:10;66.20;;;22.58;;
76113;SDS011;64845;53.086;5.834;2022-11-21T07:41:35;99.20;;;21.85;;
76113;SDS011;64845;53.086;5.834;2022-11-21T07:44:01;52.92;;;22.05;;
76113;SDS011;64845;53.086;5.834;2022-11-21T07:46:26;70.97;;;21.42;;
76113;SDS011;64845;53.086;5.834;2022-11-21T07:48:52;50.70;;;20.08;;
76113;SDS011;64845;53.086;5.834;2022-11-21T07:51:17;72.07;;;19.98;;
76113;SDS011;64845;53.086;5.834;2022-11-21T07:53:42;81.03;;;19.35;;
76113;SDS011;64845;53.086;5.834;2022-11-21T07:56:08;75.15;;;19.08;;
76113;SDS011;64845;53.086;5.834;2022-11-21T07:58:33;61.05;;;18.75;;
76113;SDS011;64845;53.086;5.834;2022-11-21T08:01:03;80.13;;;18.20;;
76113;SDS011;64845;53.086;5.834;2022-11-21T08:03:29;79.97;;;16.93;;
76113;SDS011;64845;53.086;5.834;2022-11-21T08:05:55;90.80;;;16.48;;
76113;SDS011;64845;53.086;5.834;2022-11-21T08:08:21;109.30;;;18.90;;
76113;SDS011;64845;53.086;5.834;2022-11-21T08:10:46;153.38;;;17.85;;
76113;SDS011;64845;53.086;5.834;2022-11-21T08:13:12;71.78;;;17.38;;
76113;SDS011;64845;53.086;5.834;2022-11-21T08:15:38;87.35;;;17.90;;
76113;SDS011;64845;53.086;5.834;2022-11-21T08:18:21;139.80;;;17.35;;
76113;SDS011;64845;53.086;5.834;2022-11-21T08:20:47;206.30;;;18.27;;
76113;SDS011;64845;53.086;5.834;2022-11-21T08:23:12;182.65;;;17.70;;
76113;SDS011;64845;53.086;5.834;2022-11-21T08:25:38;84.80;;;16.05;;
76113;SDS011;64845;53.086;5.834;2022-11-21T08:28:05;102.68;;;16.63;;
76113;SDS011;64845;53.086;5.834;2022-11-21T08:30:32;62.05;;;15.38;;
76113;SDS011;64845;53.086;5.834;2022-11-21T08:32:59;90.82;;;16.17;;
76113;SDS011;64845;53.086;5.834;2022-11-21T08:35:25;77.53;;;15.90;;
76113;SDS011;64845;53.086;5.834;2022-11-21T08:37:57;62.08;;;16.35;;
76113;SDS011;64845;53.086;5.834;2022-11-21T08:40:24;36.63;;;12.95;;
76113;SDS011;64845;53.086;5.834;2022-11-21T08:43:00;37.78;;;13.57;;
76113;SDS011;64845;53.086;5.834;2022-11-21T08:45:30;19.83;;;11.82;;
76113;SDS011;64845;53.086;5.834;2022-11-21T08:47:56;23.50;;;12.88;;
76113;SDS011;64845;53.086;5.834;2022-11-21T08:50:22;27.17;;;12.10;;
76113;SDS011;64845;53.086;5.834;2022-11-21T08:52:48;23.98;;;11.48;;
76113;SDS011;64845;53.086;5.834;2022-11-21T08:55:13;22.60;;;11.40;;
76113;SDS011;64845;53.086;5.834;2022-11-21T08:57:40;21.73;;;11.63;;
76113;SDS011;64845;53.086;5.834;2022-11-21T09:00:06;18.75;;;11.18;;
76113;SDS011;64845;53.086;5.834;2022-11-21T09:02:34;29.05;;;11.40;;
76113;SDS011;64845;53.086;5.834;2022-11-21T09:04:59;25.52;;;11.07;;
76113;SDS011;64845;53.086;5.834;2022-11-21T09:07:25;15.13;;;10.23;;
76113;SDS011;64845;53.086;5.834;2022-11-21T09:09:50;18.20;;;11.77;;
76113;SDS011;64845;53.086;5.834;2022-11-21T09:12:16;21.23;;;10.63;;
76113;SDS011;64845;53.086;5.834;2022-11-21T09:14:41;18.42;;;10.65;;
76113;SDS011;64845;53.086;5.834;2022-11-21T09:17:25;18.77;;;10.80;;
76113;SDS011;64845;53.086;5.834;2022-11-21T09:20:09;19.27;;;11.13;;
76113;SDS011;64845;53.086;5.834;2022-11-21T09:22:35;17.23;;;10.75;;
76113;SDS011;64845;53.086;5.834;2022-11-21T09:25:00;16.60;;;10.13;;
76113;SDS011;64845;53.086;5.834;2022-11-21T09:27:25;15.45;;;10.27;;
76113;SDS011;64845;53.086;5.834;2022-11-21T09:29:51;17.95;;;10.63;;
76113;SDS011;64845;53.086;5.834;2022-11-21T09:32:16;16.63;;;10.65;;
76113;SDS011;64845;53.086;5.834;2022-11-21T09:34:42;15.88;;;9.80;;
76113;SDS011;64845;53.086;5.834;2022-11-21T09:37:07;18.55;;;11.35;;
76113;SDS011;64845;53.086;5.834;2022-11-21T09:39:32;17.77;;;11.25;;
76113;SDS011;64845;53.086;5.834;2022-11-21T09:48:00;13.05;;;8.88;;
76113;SDS011;64845;53.086;5.834;2022-11-21T09:50:36;13.60;;;8.57;;
76113;SDS011;64845;53.086;5.834;2022-11-21T09:53:12;13.68;;;8.95;;
76113;SDS011;64845;53.086;5.834;2022-11-21T10:01:00;14.05;;;8.43;;
76113;SDS011;64845;53.086;5.834;2022-11-21T10:03:28;12.57;;;8.30;;
76113;SDS011;64845;53.086;5.834;2022-11-21T10:05:59;13.27;;;8.18;;
76113;SDS011;64845;53.086;5.834;2022-11-21T10:08:40;13.00;;;8.73;;
76113;SDS011;64845;53.086;5.834;2022-11-21T10:11:17;13.88;;;9.02;;
76113;SDS011;64845;53.086;5.834;2022-11-21T10:25:31;13.00;;;8.88;;
76113;SDS011;64845;53.086;5.834;2022-11-21T10:28:07;12.13;;;7.88;;
76113;SDS011;64845;53.086;5.834;2022-11-21T10:30:41;11.95;;;8.35;;
76113;SDS011;64845;53.086;5.834;2022-11-21T10:33:13;11.50;;;8.00;;
76113;SDS011;64845;53.086;5.834;2022-11-21T10:35:47;11.02;;;7.63;;
76113;SDS011;64845;53.086;5.834;2022-11-21T10:38:19;10.65;;;7.38;;
76113;SDS011;64845;53.086;5.834;2022-11-21T10:40:46;11.35;;;7.75;;
76113;SDS011;64845;53.086;5.834;2022-11-21T10:46:23;9.18;;;6.75;;
76113;SDS011;64845;53.086;5.834;2022-11-21T10:49:09;10.05;;;7.32;;
76113;SDS011;64845;53.086;5.834;2022-11-21T10:51:51;9.77;;;6.97;;
76113;SDS011;64845;53.086;5.834;2022-11-21T10:54:24;10.10;;;6.88;;
76113;SDS011;64845;53.086;5.834;2022-11-21T10:57:19;8.98;;;6.63;;
76113;SDS011;64845;53.086;5.834;2022-11-21T11:00:26;11.55;;;7.25;;
76113;SDS011;64845;53.086;5.834;2022-11-21T11:02:56;10.55;;;7.40;;
76113;SDS011;64845;53.086;5.834;2022-11-21T11:05:33;11.63;;;7.43;;
76113;SDS011;64845;53.086;5.834;2022-11-21T11:08:09;10.85;;;7.30;;
76113;SDS011;64845;53.086;5.834;2022-11-21T11:13:13;12.25;;;8.13;;
76113;SDS011;64845;53.086;5.834;2022-11-21T11:16:03;11.82;;;7.78;;
76113;SDS011;64845;53.086;5.834;2022-11-21T11:18:29;11.88;;;7.78;;
76113;SDS011;64845;53.086;5.834;2022-11-21T11:23:46;13.25;;;8.77;;
76113;SDS011;64845;53.086;5.834;2022-11-21T11:26:26;12.80;;;9.20;;
76113;SDS011;64845;53.086;5.834;2022-11-21T11:29:06;15.35;;;9.95;;
76113;SDS011;64845;53.086;5.834;2022-11-21T11:31:39;15.85;;;9.73;;
76113;SDS011;64845;53.086;5.834;2022-11-21T11:34:37;15.10;;;10.43;;
76113;SDS011;64845;53.086;5.834;2022-11-21T11:37:19;15.77;;;10.07;;
76113;SDS011;64845;53.086;5.834;2022-11-21T11:48:56;15.75;;;9.95;;
76113;SDS011;64845;53.086;5.834;2022-11-21T11:51:33;14.25;;;10.55;;
76113;SDS011;64845;53.086;5.834;2022-11-21T11:54:14;15.18;;;9.48;;
76113;SDS011;64845;53.086;5.834;2022-11-21T11:56:47;14.10;;;9.55;;
76113;SDS011;64845;53.086;5.834;2022-11-21T12:04:53;13.63;;;9.40;;
76113;SDS011;64845;53.086;5.834;2022-11-21T12:07:28;14.90;;;9.75;;
76113;SDS011;64845;53.086;5.834;2022-11-21T12:09:58;13.15;;;9.63;;
76113;SDS011;64845;53.086;5.834;2022-11-21T12:12:42;15.77;;;10.70;;
76113;SDS011;64845;53.086;5.834;2022-11-21T12:29:15;19.70;;;11.25;;
76113;SDS011;64845;53.086;5.834;2022-11-21T12:34:52;18.38;;;10.48;;
76113;SDS011;64845;53.086;5.834;2022-11-21T12:37:57;19.00;;;12.27;;
76113;SDS011;64845;53.086;5.834;2022-11-21T12:51:06;17.92;;;11.02;;
76113;SDS011;64845;53.086;5.834;2022-11-21T12:54:00;19.73;;;12.52;;
76113;SDS011;64845;53.086;5.834;2022-11-21T12:59:30;16.90;;;11.48;;
76113;SDS011;64845;53.086;5.834;2022-11-21T13:04:48;19.25;;;11.63;;
76113;SDS011;64845;53.086;5.834;2022-11-21T13:07:15;19.63;;;12.63;;
76113;SDS011;64845;53.086;5.834;2022-11-21T13:09:42;18.83;;;11.93;;
76113;SDS011;64845;53.086;5.834;2022-11-21T13:12:14;19.75;;;12.43;;
76113;SDS011;64845;53.086;5.834;2022-11-21T13:19:56;23.13;;;13.57;;
76113;SDS011;64845;53.086;5.834;2022-11-21T13:25:00;24.95;;;14.77;;
76113;SDS011;64845;53.086;5.834;2022-11-21T13:43:28;20.48;;;12.60;;
76113;SDS011;64845;53.086;5.834;2022-11-21T13:45:54;21.63;;;12.85;;
76113;SDS011;64845;53.086;5.834;2022-11-21T14:02:59;23.38;;;14.00;;
76113;SDS011;64845;53.086;5.834;2022-11-21T14:08:34;25.27;;;13.43;;
76113;SDS011;64845;53.086;5.834;2022-11-21T14:11:01;30.20;;;14.30;;
76113;SDS011;64845;53.086;5.834;2022-11-21T14:13:46;29.88;;;14.52;;
76113;SDS011;64845;53.086;5.834;2022-11-21T14:16:22;28.70;;;14.88;;
76113;SDS011;64845;53.086;5.834;2022-11-21T14:18:55;29.55;;;17.60;;
76113;SDS011;64845;53.086;5.834;2022-11-21T14:21:26;27.42;;;14.63;;
76113;SDS011;64845;53.086;5.834;2022-11-21T14:23:57;31.33;;;14.60;;
76113;SDS011;64845;53.086;5.834;2022-11-21T14:26:28;24.88;;;14.23;;
76113;SDS011;64845;53.086;5.834;2022-11-21T14:29:18;31.65;;;16.40;;
76113;SDS011;64845;53.086;5.834;2022-11-21T14:31:50;33.40;;;18.85;;
76113;SDS011;64845;53.086;5.834;2022-11-21T14:34:25;37.83;;;16.67;;
76113;SDS011;64845;53.086;5.834;2022-11-21T14:36:56;34.10;;;15.85;;
76113;SDS011;64845;53.086;5.834;2022-11-21T14:39:25;43.53;;;13.95;;
76113;SDS011;64845;53.086;5.834;2022-11-21T14:41:55;31.42;;;14.77;;
76113;SDS011;64845;53.086;5.834;2022-11-21T14:44:23;40.17;;;13.40;;
76113;SDS011;64845;53.086;5.834;2022-11-21T14:46:49;37.85;;;13.88;;
76113;SDS011;64845;53.086;5.834;2022-11-21T14:51:42;42.90;;;14.20;;
76113;SDS011;64845;53.086;5.834;2022-11-21T14:54:52;37.28;;;15.38;;
76113;SDS011;64845;53.086;5.834;2022-11-21T14:57:05;62.97;;;16.52;;
76113;SDS011;64845;53.086;5.834;2022-11-21T14:59:33;42.08;;;14.68;;
76113;SDS011;64845;53.086;5.834;2022-11-21T15:02:14;49.38;;;14.32;;
76113;SDS011;64845;53.086;5.834;2022-11-21T15:04:42;32.50;;;15.48;;
76113;SDS011;64845;53.086;5.834;2022-11-21T15:07:16;35.45;;;14.45;;
76113;SDS011;64845;53.086;5.834;2022-11-21T15:09:43;62.65;;;15.43;;
76113;SDS011;64845;53.086;5.834;2022-11-21T15:12:08;37.53;;;14.90;;
76113;SDS011;64845;53.086;5.834;2022-11-21T15:14:44;57.55;;;15.52;;
76113;SDS011;64845;53.086;5.834;2022-11-21T15:17:15;49.10;;;14.57;;
76113;SDS011;64845;53.086;5.834;2022-11-21T15:19:44;61.80;;;17.90;;
76113;SDS011;64845;53.086;5.834;2022-11-21T15:22:22;52.28;;;17.55;;
76113;SDS011;64845;53.086;5.834;2022-11-21T15:25:21;80.20;;;21.75;;
76113;SDS011;64845;53.086;5.834;2022-11-21T15:27:50;54.53;;;14.80;;
76113;SDS011;64845;53.086;5.834;2022-11-21T15:30:31;76.78;;;16.17;;
76113;SDS011;64845;53.086;5.834;2022-11-21T15:33:04;62.80;;;18.08;;
76113;SDS011;64845;53.086;5.834;2022-11-21T15:37:59;80.93;;;16.48;;
76113;SDS011;64845;53.086;5.834;2022-11-21T15:40:25;69.68;;;16.38;;
76113;SDS011;64845;53.086;5.834;2022-11-21T15:42:51;79.90;;;16.30;;
76113;SDS011;64845;53.086;5.834;2022-11-21T15:45:21;58.30;;;15.38;;
76113;SDS011;64845;53.086;5.834;2022-11-21T15:47:49;64.88;;;15.95;;
76113;SDS011;64845;53.086;5.834;2022-11-21T15:50:15;54.80;;;15.85;;
76113;SDS011;64845;53.086;5.834;2022-11-21T15:52:47;86.15;;;16.45;;
76113;SDS011;64845;53.086;5.834;2022-11-21T15:55:21;60.20;;;17.77;;
76113;SDS011;64845;53.086;5.834;2022-11-21T15:57:49;56.53;;;16.63;;
76113;SDS011;64845;53.086;5.834;2022-11-21T16:00:15;48.03;;;17.50;;
76113;SDS011;64845;53.086;5.834;2022-11-21T16:02:41;62.00;;;19.05;;
76113;SDS011;64845;53.086;5.834;2022-11-21T16:05:10;55.47;;;20.00;;
76113;SDS011;64845;53.086;5.834;2022-11-21T16:07:39;52.10;;;19.70;;
76113;SDS011;64845;53.086;5.834;2022-11-21T16:10:05;53.20;;;20.63;;
76113;SDS011;64845;53.086;5.834;2022-11-21T16:12:32;57.47;;;19.95;;
76113;SDS011;64845;53.086;5.834;2022-11-21T16:14:57;56.00;;;17.52;;
76113;SDS011;64845;53.086;5.834;2022-11-21T16:17:23;65.82;;;18.80;;
76113;SDS011;64845;53.086;5.834;2022-11-21T16:19:48;64.38;;;18.75;;
76113;SDS011;64845;53.086;5.834;2022-11-21T16:22:13;62.67;;;17.90;;
76113;SDS011;64845;53.086;5.834;2022-11-21T16:24:40;48.47;;;16.58;;
76113;SDS011;64845;53.086;5.834;2022-11-21T16:27:06;51.78;;;18.00;;
76113;SDS011;64845;53.086;5.834;2022-11-21T16:29:31;50.30;;;17.73;;
76113;SDS011;64845;53.086;5.834;2022-11-21T16:31:56;44.15;;;17.30;;
76113;SDS011;64845;53.086;5.834;2022-11-21T16:34:22;61.92;;;17.70;;
76113;SDS011;64845;53.086;5.834;2022-11-21T16:36:47;53.30;;;19.35;;
76113;SDS011;64845;53.086;5.834;2022-11-21T16:39:13;64.78;;;19.35;;
76113;SDS011;64845;53.086;5.834;2022-11-21T16:41:38;64.45;;;18.77;;
76113;SDS011;64845;53.086;5.834;2022-11-21T16:44:05;66.10;;;19.85;;
76113;SDS011;64845;53.086;5.834;2022-11-21T16:46:36;53.72;;;19.70;;